Accueil
METAR-TAF:

METAR-TAF

Aéroports :

Aéroport de Carcassonne Salvaza

Carcassonne, France

latitude: 43-13N, longitude: 002-19E, altitude: 130 m

Observation

Le bulletin a été fait il y a 26 minutes, à 02:00 UTC
Vent 10 kt de ouest
Température 21°C
Humidité 73%
Pression 1013 hPa
Visibilité 10 km ou plus
Quelques nuages à une hauteur de 3200 ft
Nuages fragmentés à une hauteur de 4600 ft
Ciel couvert à une hauteur de 5800 ft

METAR: LFMK 060200Z AUTO 27010KT 9999 FEW032 BKN046 OVC058 21/16 Q1013

Heure: 04:26 (02:26 UTC)

Prévision

Le bulletin a été fait il y a 12 heures et 26 minutes, à 14:00 UTC
Prévision valable du 05 à 15 UTC au 06 à 15 UTC
Vent 10 kt de ouest
Visibilité 10 km ou plus
Evoluant progressivement
du 05 à 21 UTC au 05 à 23 UTC
Nuages fragmentés à une hauteur de 4000 ft

TAF: LFMK 051400Z 0515/0615 28010KT 9999 NSC BECMG 0521/0523 BKN040

Observations et prévisions météorologiques de plus de 4000 aéroports (messages METAR et TAF).

Les stations disponibles sont représentées par des disques jaunes et rouges sur la carte.

Passer la souris dessus pour voir le nom de la station.

Cliquer dessus pour voir les observations et prévisions météorologiques.

Pour changer de carte: cliquez sur les boutons verts avec une croix noire pour zoomer, sur le bouton vert avec un tiret pour effectuer un zoom arrière, ou sur les flèches vertes pour les cartes adjacentes.


METAR-TAF: